sensor_id;sensor_type;location;lat;lon;timestamp;P1;durP1;ratioP1;P2;durP2;ratioP2
18340;SDS011;9296;48.084;16.352;2023-04-15T00:01:12;0.55;;;0.40;;
18340;SDS011;9296;48.084;16.352;2023-04-15T00:03:44;1.48;;;0.60;;
18340;SDS011;9296;48.084;16.352;2023-04-15T00:06:11;0.60;;;0.50;;
18340;SDS011;9296;48.084;16.352;2023-04-15T00:08:38;0.60;;;0.40;;
18340;SDS011;9296;48.084;16.352;2023-04-15T00:11:06;1.30;;;0.45;;
18340;SDS011;9296;48.084;16.352;2023-04-15T00:13:33;0.70;;;0.50;;
18340;SDS011;9296;48.084;16.352;2023-04-15T00:16:00;0.40;;;0.40;;
18340;SDS011;9296;48.084;16.352;2023-04-15T00:18:27;0.60;;;0.30;;
18340;SDS011;9296;48.084;16.352;2023-04-15T00:20:57;1.25;;;0.40;;
18340;SDS011;9296;48.084;16.352;2023-04-15T00:23:24;1.10;;;0.30;;
18340;SDS011;9296;48.084;16.352;2023-04-15T00:25:51;0.60;;;0.50;;
18340;SDS011;9296;48.084;16.352;2023-04-15T00:28:19;0.40;;;0.30;;
18340;SDS011;9296;48.084;16.352;2023-04-15T00:30:46;0.70;;;0.30;;
18340;SDS011;9296;48.084;16.352;2023-04-15T00:33:13;0.65;;;0.40;;
18340;SDS011;9296;48.084;16.352;2023-04-15T00:35:41;0.60;;;0.40;;
18340;SDS011;9296;48.084;16.352;2023-04-15T00:38:28;0.65;;;0.40;;
18340;SDS011;9296;48.084;16.352;2023-04-15T00:40:55;0.90;;;0.40;;
18340;SDS011;9296;48.084;16.352;2023-04-15T00:43:23;2.83;;;0.40;;
18340;SDS011;9296;48.084;16.352;2023-04-15T00:45:50;0.30;;;0.30;;
18340;SDS011;9296;48.084;16.352;2023-04-15T00:48:18;0.57;;;0.40;;
18340;SDS011;9296;48.084;16.352;2023-04-15T00:50:46;0.77;;;0.47;;
18340;SDS011;9296;48.084;16.352;2023-04-15T00:56:18;0.75;;;0.50;;
18340;SDS011;9296;48.084;16.352;2023-04-15T00:58:48;0.77;;;0.50;;
18340;SDS011;9296;48.084;16.352;2023-04-15T01:01:15;0.70;;;0.50;;
18340;SDS011;9296;48.084;16.352;2023-04-15T01:03:42;0.70;;;0.52;;
18340;SDS011;9296;48.084;16.352;2023-04-15T01:06:10;1.33;;;0.38;;
18340;SDS011;9296;48.084;16.352;2023-04-15T01:08:37;0.60;;;0.40;;
18340;SDS011;9296;48.084;16.352;2023-04-15T01:11:04;1.15;;;0.50;;
18340;SDS011;9296;48.084;16.352;2023-04-15T01:13:33;0.80;;;0.60;;
18340;SDS011;9296;48.084;16.352;2023-04-15T01:16:02;0.65;;;0.50;;
18340;SDS011;9296;48.084;16.352;2023-04-15T01:18:29;0.80;;;0.40;;
18340;SDS011;9296;48.084;16.352;2023-04-15T01:20:56;1.45;;;0.50;;
18340;SDS011;9296;48.084;16.352;2023-04-15T01:26:58;0.73;;;0.57;;
18340;SDS011;9296;48.084;16.352;2023-04-15T01:29:25;0.57;;;0.50;;
18340;SDS011;9296;48.084;16.352;2023-04-15T01:31:53;0.85;;;0.52;;
18340;SDS011;9296;48.084;16.352;2023-04-15T01:34:21;0.80;;;0.60;;
18340;SDS011;9296;48.084;16.352;2023-04-15T01:39:53;1.77;;;0.60;;
18340;SDS011;9296;48.084;16.352;2023-04-15T01:42:22;2.15;;;0.88;;
18340;SDS011;9296;48.084;16.352;2023-04-15T01:44:50;1.00;;;0.90;;
18340;SDS011;9296;48.084;16.352;2023-04-15T01:47:17;1.55;;;1.00;;
18340;SDS011;9296;48.084;16.352;2023-04-15T01:49:45;1.65;;;0.80;;
18340;SDS011;9296;48.084;16.352;2023-04-15T01:52:12;1.00;;;0.80;;
18340;SDS011;9296;48.084;16.352;2023-04-15T01:54:39;1.38;;;1.00;;
18340;SDS011;9296;48.084;16.352;2023-04-15T01:57:06;1.10;;;0.90;;
18340;SDS011;9296;48.084;16.352;2023-04-15T01:59:35;1.27;;;0.80;;
18340;SDS011;9296;48.084;16.352;2023-04-15T02:02:02;2.55;;;1.10;;
18340;SDS011;9296;48.084;16.352;2023-04-15T02:04:29;1.20;;;1.10;;
18340;SDS011;9296;48.084;16.352;2023-04-15T02:13:04;2.35;;;0.90;;
18340;SDS011;9296;48.084;16.352;2023-04-15T02:15:32;1.35;;;1.02;;
18340;SDS011;9296;48.084;16.352;2023-04-15T02:18:00;0.80;;;0.80;;
18340;SDS011;9296;48.084;16.352;2023-04-15T02:20:27;0.80;;;0.70;;
18340;SDS011;9296;48.084;16.352;2023-04-15T02:22:56;1.52;;;1.10;;
18340;SDS011;9296;48.084;16.352;2023-04-15T02:25:23;1.42;;;0.85;;
18340;SDS011;9296;48.084;16.352;2023-04-15T02:27:50;1.45;;;0.90;;
18340;SDS011;9296;48.084;16.352;2023-04-15T02:30:17;1.73;;;1.20;;
18340;SDS011;9296;48.084;16.352;2023-04-15T02:32:46;2.72;;;1.20;;
18340;SDS011;9296;48.084;16.352;2023-04-15T02:35:13;1.83;;;1.27;;
18340;SDS011;9296;48.084;16.352;2023-04-15T02:40:52;2.08;;;1.30;;
18340;SDS011;9296;48.084;16.352;2023-04-15T02:43:19;1.50;;;1.40;;
18340;SDS011;9296;48.084;16.352;2023-04-15T02:45:46;1.58;;;1.30;;
18340;SDS011;9296;48.084;16.352;2023-04-15T02:48:15;1.50;;;1.17;;
18340;SDS011;9296;48.084;16.352;2023-04-15T02:50:44;1.38;;;1.17;;
18340;SDS011;9296;48.084;16.352;2023-04-15T02:53:12;1.70;;;1.30;;
18340;SDS011;9296;48.084;16.352;2023-04-15T02:55:39;1.50;;;1.38;;
18340;SDS011;9296;48.084;16.352;2023-04-15T02:58:06;2.08;;;1.40;;
18340;SDS011;9296;48.084;16.352;2023-04-15T03:00:33;1.50;;;1.38;;
18340;SDS011;9296;48.084;16.352;2023-04-15T03:03:01;1.38;;;1.27;;
18340;SDS011;9296;48.084;16.352;2023-04-15T03:05:30;1.98;;;1.70;;
18340;SDS011;9296;48.084;16.352;2023-04-15T03:07:58;1.73;;;1.33;;
18340;SDS011;9296;48.084;16.352;2023-04-15T03:10:27;1.80;;;1.33;;
18340;SDS011;9296;48.084;16.352;2023-04-15T03:12:54;4.55;;;1.55;;
18340;SDS011;9296;48.084;16.352;2023-04-15T03:15:21;1.95;;;1.30;;
18340;SDS011;9296;48.084;16.352;2023-04-15T03:17:48;1.40;;;1.25;;
18340;SDS011;9296;48.084;16.352;2023-04-15T03:20:15;2.17;;;1.42;;
18340;SDS011;9296;48.084;16.352;2023-04-15T03:22:44;1.98;;;1.50;;
18340;SDS011;9296;48.084;16.352;2023-04-15T03:25:11;1.63;;;1.20;;
18340;SDS011;9296;48.084;16.352;2023-04-15T03:27:38;3.13;;;1.67;;
18340;SDS011;9296;48.084;16.352;2023-04-15T03:30:06;1.70;;;1.52;;
18340;SDS011;9296;48.084;16.352;2023-04-15T03:32:33;2.45;;;1.45;;
18340;SDS011;9296;48.084;16.352;2023-04-15T03:35:00;2.05;;;1.50;;
18340;SDS011;9296;48.084;16.352;2023-04-15T03:43:18;2.10;;;1.60;;
18340;SDS011;9296;48.084;16.352;2023-04-15T03:45:46;2.85;;;1.85;;
18340;SDS011;9296;48.084;16.352;2023-04-15T03:48:13;2.50;;;1.95;;
18340;SDS011;9296;48.084;16.352;2023-04-15T03:50:40;4.57;;;2.20;;
18340;SDS011;9296;48.084;16.352;2023-04-15T03:53:07;4.68;;;2.17;;
18340;SDS011;9296;48.084;16.352;2023-04-15T03:55:34;2.55;;;2.00;;
18340;SDS011;9296;48.084;16.352;2023-04-15T03:58:02;3.42;;;2.17;;
18340;SDS011;9296;48.084;16.352;2023-04-15T04:00:30;2.60;;;2.40;;
18340;SDS011;9296;48.084;16.352;2023-04-15T04:02:58;2.80;;;2.20;;
18340;SDS011;9296;48.084;16.352;2023-04-15T04:05:25;4.00;;;2.20;;
18340;SDS011;9296;48.084;16.352;2023-04-15T04:11:05;3.00;;;2.10;;
18340;SDS011;9296;48.084;16.352;2023-04-15T04:13:32;2.50;;;2.28;;
18340;SDS011;9296;48.084;16.352;2023-04-15T04:16:00;2.67;;;2.10;;
18340;SDS011;9296;48.084;16.352;2023-04-15T04:18:28;2.38;;;2.17;;
18340;SDS011;9296;48.084;16.352;2023-04-15T04:20:55;3.15;;;2.00;;
18340;SDS011;9296;48.084;16.352;2023-04-15T04:23:41;2.25;;;1.90;;
18340;SDS011;9296;48.084;16.352;2023-04-15T04:26:08;3.38;;;3.08;;
18340;SDS011;9296;48.084;16.352;2023-04-15T04:28:35;4.75;;;4.32;;
18340;SDS011;9296;48.084;16.352;2023-04-15T04:31:05;3.30;;;3.00;;
18340;SDS011;9296;48.084;16.352;2023-04-15T04:33:33;2.90;;;2.60;;
18340;SDS011;9296;48.084;16.352;2023-04-15T04:36:00;2.65;;;2.30;;
18340;SDS011;9296;48.084;16.352;2023-04-15T04:41:31;2.65;;;2.20;;
18340;SDS011;9296;48.084;16.352;2023-04-15T04:43:58;2.60;;;2.17;;
18340;SDS011;9296;48.084;16.352;2023-04-15T04:46:27;3.17;;;2.33;;
18340;SDS011;9296;48.084;16.352;2023-04-15T04:48:54;2.72;;;2.30;;
18340;SDS011;9296;48.084;16.352;2023-04-15T04:51:21;3.25;;;2.53;;
18340;SDS011;9296;48.084;16.352;2023-04-15T04:56:51;3.03;;;2.40;;
18340;SDS011;9296;48.084;16.352;2023-04-15T04:59:19;3.15;;;2.85;;
18340;SDS011;9296;48.084;16.352;2023-04-15T05:01:47;3.38;;;3.08;;
18340;SDS011;9296;48.084;16.352;2023-04-15T05:04:15;2.80;;;2.30;;
18340;SDS011;9296;48.084;16.352;2023-04-15T05:06:42;3.13;;;2.50;;
18340;SDS011;9296;48.084;16.352;2023-04-15T05:09:09;3.45;;;2.53;;
18340;SDS011;9296;48.084;16.352;2023-04-15T05:11:36;2.47;;;2.28;;
18340;SDS011;9296;48.084;16.352;2023-04-15T05:14:04;3.88;;;3.40;;
18340;SDS011;9296;48.084;16.352;2023-04-15T05:16:31;4.35;;;3.95;;
18340;SDS011;9296;48.084;16.352;2023-04-15T05:19:00;4.10;;;3.70;;
18340;SDS011;9296;48.084;16.352;2023-04-15T05:21:27;4.97;;;4.57;;
18340;SDS011;9296;48.084;16.352;2023-04-15T05:26:58;2.85;;;2.55;;
18340;SDS011;9296;48.084;16.352;2023-04-15T05:29:26;2.03;;;1.83;;
18340;SDS011;9296;48.084;16.352;2023-04-15T05:31:53;2.75;;;2.30;;
18340;SDS011;9296;48.084;16.352;2023-04-15T05:34:22;4.10;;;2.55;;
18340;SDS011;9296;48.084;16.352;2023-04-15T05:36:49;2.45;;;2.00;;
18340;SDS011;9296;48.084;16.352;2023-04-15T05:42:20;2.28;;;1.90;;
18340;SDS011;9296;48.084;16.352;2023-04-15T05:44:47;2.25;;;2.00;;
18340;SDS011;9296;48.084;16.352;2023-04-15T05:47:14;2.53;;;2.17;;
18340;SDS011;9296;48.084;16.352;2023-04-15T05:49:43;2.30;;;1.92;;
18340;SDS011;9296;48.084;16.352;2023-04-15T05:52:10;1.75;;;1.60;;
18340;SDS011;9296;48.084;16.352;2023-04-15T05:54:37;1.70;;;1.50;;
18340;SDS011;9296;48.084;16.352;2023-04-15T05:57:05;3.05;;;1.70;;
18340;SDS011;9296;48.084;16.352;2023-04-15T05:59:32;1.45;;;1.30;;
18340;SDS011;9296;48.084;16.352;2023-04-15T06:01:59;3.33;;;2.03;;
18340;SDS011;9296;48.084;16.352;2023-04-15T06:04:26;3.28;;;2.00;;
18340;SDS011;9296;48.084;16.352;2023-04-15T06:06:55;2.13;;;1.77;;
18340;SDS011;9296;48.084;16.352;2023-04-15T06:12:26;2.28;;;1.60;;
18340;SDS011;9296;48.084;16.352;2023-04-15T06:14:53;2.42;;;1.52;;
18340;SDS011;9296;48.084;16.352;2023-04-15T06:17:20;3.33;;;1.58;;
18340;SDS011;9296;48.084;16.352;2023-04-15T06:19:48;2.22;;;1.38;;
18340;SDS011;9296;48.084;16.352;2023-04-15T06:25:12;2.83;;;1.77;;
18340;SDS011;9296;48.084;16.352;2023-04-15T06:27:40;2.47;;;1.58;;
18340;SDS011;9296;48.084;16.352;2023-04-15T06:30:07;2.33;;;1.83;;
18340;SDS011;9296;48.084;16.352;2023-04-15T06:32:34;2.42;;;1.60;;
18340;SDS011;9296;48.084;16.352;2023-04-15T06:35:02;1.65;;;1.50;;
18340;SDS011;9296;48.084;16.352;2023-04-15T06:37:29;2.08;;;1.40;;
18340;SDS011;9296;48.084;16.352;2023-04-15T06:39:57;1.20;;;1.10;;
18340;SDS011;9296;48.084;16.352;2023-04-15T06:42:26;1.83;;;1.50;;
18340;SDS011;9296;48.084;16.352;2023-04-15T06:44:53;2.40;;;1.50;;
18340;SDS011;9296;48.084;16.352;2023-04-15T06:47:20;1.50;;;1.40;;
18340;SDS011;9296;48.084;16.352;2023-04-15T06:49:47;1.40;;;1.30;;
18340;SDS011;9296;48.084;16.352;2023-04-15T06:52:14;1.80;;;1.50;;
18340;SDS011;9296;48.084;16.352;2023-04-15T06:54:41;2.03;;;1.65;;
18340;SDS011;9296;48.084;16.352;2023-04-15T06:57:09;2.15;;;1.70;;
18340;SDS011;9296;48.084;16.352;2023-04-15T06:59:37;1.75;;;1.48;;
18340;SDS011;9296;48.084;16.352;2023-04-15T07:02:04;2.42;;;1.63;;
18340;SDS011;9296;48.084;16.352;2023-04-15T07:04:34;2.60;;;1.70;;
18340;SDS011;9296;48.084;16.352;2023-04-15T07:07:01;3.08;;;1.60;;
18340;SDS011;9296;48.084;16.352;2023-04-15T07:12:32;2.35;;;1.30;;
18340;SDS011;9296;48.084;16.352;2023-04-15T07:15:02;1.42;;;1.33;;
18340;SDS011;9296;48.084;16.352;2023-04-15T07:17:29;2.20;;;1.33;;
18340;SDS011;9296;48.084;16.352;2023-04-15T07:19:58;1.55;;;1.00;;
18340;SDS011;9296;48.084;16.352;2023-04-15T07:22:35;1.35;;;0.98;;
18340;SDS011;9296;48.084;16.352;2023-04-15T07:25:03;1.73;;;1.13;;
18340;SDS011;9296;48.084;16.352;2023-04-15T07:27:30;1.13;;;1.02;;
18340;SDS011;9296;48.084;16.352;2023-04-15T07:29:57;1.90;;;1.23;;
18340;SDS011;9296;48.084;16.352;2023-04-15T07:32:26;1.40;;;1.20;;
18340;SDS011;9296;48.084;16.352;2023-04-15T07:34:56;1.48;;;1.00;;
18340;SDS011;9296;48.084;16.352;2023-04-15T07:37:41;1.27;;;1.17;;
18340;SDS011;9296;48.084;16.352;2023-04-15T07:40:09;1.88;;;1.00;;
18340;SDS011;9296;48.084;16.352;2023-04-15T07:42:36;1.83;;;1.02;;
18340;SDS011;9296;48.084;16.352;2023-04-15T07:45:04;1.77;;;1.23;;
18340;SDS011;9296;48.084;16.352;2023-04-15T07:47:32;1.40;;;1.30;;
18340;SDS011;9296;48.084;16.352;2023-04-15T07:49:59;2.53;;;1.85;;
18340;SDS011;9296;48.084;16.352;2023-04-15T07:52:27;2.20;;;2.00;;
18340;SDS011;9296;48.084;16.352;2023-04-15T07:54:54;2.65;;;2.00;;
18340;SDS011;9296;48.084;16.352;2023-04-15T07:57:21;3.00;;;2.03;;
18340;SDS011;9296;48.084;16.352;2023-04-15T07:59:48;2.60;;;2.00;;
18340;SDS011;9296;48.084;16.352;2023-04-15T08:02:16;2.05;;;1.83;;
18340;SDS011;9296;48.084;16.352;2023-04-15T08:04:44;2.40;;;2.08;;
18340;SDS011;9296;48.084;16.352;2023-04-15T08:07:12;2.83;;;1.58;;
18340;SDS011;9296;48.084;16.352;2023-04-15T08:12:43;1.52;;;1.40;;
18340;SDS011;9296;48.084;16.352;2023-04-15T08:15:13;1.77;;;1.30;;
18340;SDS011;9296;48.084;16.352;2023-04-15T08:17:40;1.63;;;1.27;;
18340;SDS011;9296;48.084;16.352;2023-04-15T08:20:09;1.10;;;0.95;;
18340;SDS011;9296;48.084;16.352;2023-04-15T08:22:37;1.52;;;1.20;;
18340;SDS011;9296;48.084;16.352;2023-04-15T08:25:22;1.30;;;1.20;;
18340;SDS011;9296;48.084;16.352;2023-04-15T08:27:49;1.25;;;1.15;;
18340;SDS011;9296;48.084;16.352;2023-04-15T08:30:16;2.20;;;0.90;;
18340;SDS011;9296;48.084;16.352;2023-04-15T08:32:44;1.10;;;1.00;;
18340;SDS011;9296;48.084;16.352;2023-04-15T08:35:13;1.45;;;1.08;;
18340;SDS011;9296;48.084;16.352;2023-04-15T08:37:40;2.20;;;1.00;;
18340;SDS011;9296;48.084;16.352;2023-04-15T08:40:08;1.50;;;1.10;;
18340;SDS011;9296;48.084;16.352;2023-04-15T08:42:38;2.28;;;1.10;;
18340;SDS011;9296;48.084;16.352;2023-04-15T08:45:08;4.63;;;2.13;;
18340;SDS011;9296;48.084;16.352;2023-04-15T08:47:35;3.50;;;2.30;;
18340;SDS011;9296;48.084;16.352;2023-04-15T08:50:04;3.83;;;3.00;;
18340;SDS011;9296;48.084;16.352;2023-04-15T08:52:34;4.03;;;2.83;;
18340;SDS011;9296;48.084;16.352;2023-04-15T08:58:05;3.83;;;3.28;;
18340;SDS011;9296;48.084;16.352;2023-04-15T09:00:32;3.92;;;3.53;;
18340;SDS011;9296;48.084;16.352;2023-04-15T09:02:59;4.68;;;3.72;;
18340;SDS011;9296;48.084;16.352;2023-04-15T09:05:29;3.13;;;2.83;;
18340;SDS011;9296;48.084;16.352;2023-04-15T09:07:58;3.65;;;3.28;;
18340;SDS011;9296;48.084;16.352;2023-04-15T09:10:25;4.63;;;3.25;;
18340;SDS011;9296;48.084;16.352;2023-04-15T09:12:53;3.75;;;2.78;;
18340;SDS011;9296;48.084;16.352;2023-04-15T09:15:20;2.78;;;2.45;;
18340;SDS011;9296;48.084;16.352;2023-04-15T09:17:47;3.42;;;2.72;;
18340;SDS011;9296;48.084;16.352;2023-04-15T09:20:15;2.97;;;2.65;;
18340;SDS011;9296;48.084;16.352;2023-04-15T09:22:44;3.17;;;2.60;;
18340;SDS011;9296;48.084;16.352;2023-04-15T09:25:25;4.10;;;2.30;;
18340;SDS011;9296;48.084;16.352;2023-04-15T09:27:54;3.05;;;2.55;;
18340;SDS011;9296;48.084;16.352;2023-04-15T09:30:21;3.00;;;2.53;;
18340;SDS011;9296;48.084;16.352;2023-04-15T09:32:49;3.15;;;2.60;;
18340;SDS011;9296;48.084;16.352;2023-04-15T09:35:16;3.13;;;2.80;;
18340;SDS011;9296;48.084;16.352;2023-04-15T09:37:44;3.70;;;2.75;;
18340;SDS011;9296;48.084;16.352;2023-04-15T09:42:59;2.75;;;2.00;;
18340;SDS011;9296;48.084;16.352;2023-04-15T09:45:27;2.70;;;1.80;;
18340;SDS011;9296;48.084;16.352;2023-04-15T09:47:55;3.08;;;2.28;;
18340;SDS011;9296;48.084;16.352;2023-04-15T09:50:22;2.78;;;1.90;;
18340;SDS011;9296;48.084;16.352;2023-04-15T09:56:03;3.00;;;2.20;;
18340;SDS011;9296;48.084;16.352;2023-04-15T09:58:34;2.80;;;1.83;;
18340;SDS011;9296;48.084;16.352;2023-04-15T10:01:03;1.50;;;1.40;;
18340;SDS011;9296;48.084;16.352;2023-04-15T10:03:33;1.85;;;1.30;;
18340;SDS011;9296;48.084;16.352;2023-04-15T10:06:01;1.42;;;1.10;;
18340;SDS011;9296;48.084;16.352;2023-04-15T10:08:47;2.40;;;1.10;;
18340;SDS011;9296;48.084;16.352;2023-04-15T10:11:16;1.52;;;1.13;;
18340;SDS011;9296;48.084;16.352;2023-04-15T10:13:45;2.83;;;1.60;;
18340;SDS011;9296;48.084;16.352;2023-04-15T10:16:13;1.85;;;1.50;;
18340;SDS011;9296;48.084;16.352;2023-04-15T10:18:42;2.67;;;1.40;;
18340;SDS011;9296;48.084;16.352;2023-04-15T10:21:09;2.20;;;1.60;;
18340;SDS011;9296;48.084;16.352;2023-04-15T10:23:38;2.88;;;1.42;;
18340;SDS011;9296;48.084;16.352;2023-04-15T10:26:05;1.90;;;1.40;;
18340;SDS011;9296;48.084;16.352;2023-04-15T10:28:33;1.80;;;1.42;;
18340;SDS011;9296;48.084;16.352;2023-04-15T10:31:02;2.20;;;1.70;;
18340;SDS011;9296;48.084;16.352;2023-04-15T10:33:31;1.60;;;1.30;;
18340;SDS011;9296;48.084;16.352;2023-04-15T10:35:58;1.75;;;1.08;;
18340;SDS011;9296;48.084;16.352;2023-04-15T10:41:30;1.55;;;0.90;;
18340;SDS011;9296;48.084;16.352;2023-04-15T10:43:59;0.90;;;0.70;;
18340;SDS011;9296;48.084;16.352;2023-04-15T10:46:35;0.60;;;0.60;;
18340;SDS011;9296;48.084;16.352;2023-04-15T10:49:06;1.08;;;0.90;;
18340;SDS011;9296;48.084;16.352;2023-04-15T10:51:35;1.15;;;1.02;;
18340;SDS011;9296;48.084;16.352;2023-04-15T10:54:08;1.33;;;0.80;;
18340;SDS011;9296;48.084;16.352;2023-04-15T10:56:36;1.05;;;0.90;;
18340;SDS011;9296;48.084;16.352;2023-04-15T10:59:04;0.80;;;0.65;;
18340;SDS011;9296;48.084;16.352;2023-04-15T11:07:12;0.60;;;0.50;;
18340;SDS011;9296;48.084;16.352;2023-04-15T11:12:43;0.95;;;0.60;;
18340;SDS011;9296;48.084;16.352;2023-04-15T11:15:27;0.82;;;0.50;;
18340;SDS011;9296;48.084;16.352;2023-04-15T11:17:55;0.40;;;0.40;;
18340;SDS011;9296;48.084;16.352;2023-04-15T11:20:22;1.58;;;0.88;;
18340;SDS011;9296;48.084;16.352;2023-04-15T11:22:51;1.27;;;0.70;;
18340;SDS011;9296;48.084;16.352;2023-04-15T11:28:23;0.75;;;0.70;;
18340;SDS011;9296;48.084;16.352;2023-04-15T11:30:51;1.13;;;0.80;;
18340;SDS011;9296;48.084;16.352;2023-04-15T11:33:19;0.93;;;0.80;;
18340;SDS011;9296;48.084;16.352;2023-04-15T11:35:47;2.47;;;0.90;;
18340;SDS011;9296;48.084;16.352;2023-04-15T11:38:16;0.60;;;0.60;;
18340;SDS011;9296;48.084;16.352;2023-04-15T11:43:47;1.10;;;1.00;;
18340;SDS011;9296;48.084;16.352;2023-04-15T11:46:15;0.90;;;0.80;;
18340;SDS011;9296;48.084;16.352;2023-04-15T11:48:42;1.23;;;0.90;;
18340;SDS011;9296;48.084;16.352;2023-04-15T11:51:10;1.25;;;1.15;;
18340;SDS011;9296;48.084;16.352;2023-04-15T11:53:42;1.67;;;1.20;;
18340;SDS011;9296;48.084;16.352;2023-04-15T11:56:10;1.27;;;1.10;;
18340;SDS011;9296;48.084;16.352;2023-04-15T11:58:38;1.65;;;1.08;;
18340;SDS011;9296;48.084;16.352;2023-04-15T12:01:06;1.30;;;1.20;;
18340;SDS011;9296;48.084;16.352;2023-04-15T12:03:37;2.45;;;1.45;;
18340;SDS011;9296;48.084;16.352;2023-04-15T12:06:05;1.30;;;1.13;;
18340;SDS011;9296;48.084;16.352;2023-04-15T12:11:39;1.10;;;1.00;;
18340;SDS011;9296;48.084;16.352;2023-04-15T12:14:08;0.95;;;0.80;;
18340;SDS011;9296;48.084;16.352;2023-04-15T12:16:38;0.90;;;0.88;;
18340;SDS011;9296;48.084;16.352;2023-04-15T12:19:06;1.33;;;1.02;;
18340;SDS011;9296;48.084;16.352;2023-04-15T12:21:34;0.60;;;0.60;;
18340;SDS011;9296;48.084;16.352;2023-04-15T12:30:12;0.73;;;0.52;;
18340;SDS011;9296;48.084;16.352;2023-04-15T12:32:39;0.68;;;0.52;;
18340;SDS011;9296;48.084;16.352;2023-04-15T12:35:07;0.70;;;0.60;;
18340;SDS011;9296;48.084;16.352;2023-04-15T12:37:34;0.30;;;0.30;;
18340;SDS011;9296;48.084;16.352;2023-04-15T12:43:04;0.45;;;0.30;;
18340;SDS011;9296;48.084;16.352;2023-04-15T12:45:33;0.30;;;0.20;;
18340;SDS011;9296;48.084;16.352;2023-04-15T12:48:00;0.50;;;0.30;;
18340;SDS011;9296;48.084;16.352;2023-04-15T12:50:27;0.10;;;0.10;;
18340;SDS011;9296;48.084;16.352;2023-04-15T12:52:55;0.25;;;0.20;;
18340;SDS011;9296;48.084;16.352;2023-04-15T12:58:26;0.50;;;0.50;;
18340;SDS011;9296;48.084;16.352;2023-04-15T13:00:54;0.50;;;0.50;;
18340;SDS011;9296;48.084;16.352;2023-04-15T13:03:22;0.30;;;0.20;;
18340;SDS011;9296;48.084;16.352;2023-04-15T13:05:49;0.50;;;0.40;;
18340;SDS011;9296;48.084;16.352;2023-04-15T13:08:17;0.20;;;0.20;;
18340;SDS011;9296;48.084;16.352;2023-04-15T13:10:44;0.20;;;0.20;;
18340;SDS011;9296;48.084;16.352;2023-04-15T13:13:11;0.17;;;0.17;;
18340;SDS011;9296;48.084;16.352;2023-04-15T13:15:38;0.20;;;0.20;;
18340;SDS011;9296;48.084;16.352;2023-04-15T13:18:07;0.45;;;0.28;;
18340;SDS011;9296;48.084;16.352;2023-04-15T13:20:34;2.20;;;0.30;;
18340;SDS011;9296;48.084;16.352;2023-04-15T13:23:01;0.45;;;0.35;;
18340;SDS011;9296;48.084;16.352;2023-04-15T13:25:47;0.30;;;0.30;;
18340;SDS011;9296;48.084;16.352;2023-04-15T13:28:14;0.47;;;0.10;;
18340;SDS011;9296;48.084;16.352;2023-04-15T13:30:41;0.10;;;0.10;;
18340;SDS011;9296;48.084;16.352;2023-04-15T13:33:11;1.00;;;0.30;;
18340;SDS011;9296;48.084;16.352;2023-04-15T13:35:38;0.50;;;0.20;;
18340;SDS011;9296;48.084;16.352;2023-04-15T13:38:06;0.80;;;0.32;;
18340;SDS011;9296;48.084;16.352;2023-04-15T13:40:33;0.30;;;0.30;;
18340;SDS011;9296;48.084;16.352;2023-04-15T13:43:00;0.28;;;0.28;;
18340;SDS011;9296;48.084;16.352;2023-04-15T13:45:28;0.20;;;0.20;;
18340;SDS011;9296;48.084;16.352;2023-04-15T13:47:55;0.30;;;0.30;;
18340;SDS011;9296;48.084;16.352;2023-04-15T13:50:24;0.93;;;0.30;;
18340;SDS011;9296;48.084;16.352;2023-04-15T13:52:51;0.20;;;0.20;;
18340;SDS011;9296;48.084;16.352;2023-04-15T13:55:18;0.52;;;0.38;;
18340;SDS011;9296;48.084;16.352;2023-04-15T13:57:45;0.30;;;0.30;;
18340;SDS011;9296;48.084;16.352;2023-04-15T14:00:14;0.60;;;0.40;;
18340;SDS011;9296;48.084;16.352;2023-04-15T14:02:42;0.50;;;0.45;;
18340;SDS011;9296;48.084;16.352;2023-04-15T14:05:09;0.68;;;0.50;;
18340;SDS011;9296;48.084;16.352;2023-04-15T14:07:38;1.27;;;0.80;;
18340;SDS011;9296;48.084;16.352;2023-04-15T14:10:06;0.43;;;0.20;;
18340;SDS011;9296;48.084;16.352;2023-04-15T14:12:33;0.30;;;0.30;;
18340;SDS011;9296;48.084;16.352;2023-04-15T14:15:01;0.70;;;0.20;;
18340;SDS011;9296;48.084;16.352;2023-04-15T14:17:28;0.28;;;0.25;;
18340;SDS011;9296;48.084;16.352;2023-04-15T14:19:55;0.50;;;0.40;;
18340;SDS011;9296;48.084;16.352;2023-04-15T14:22:22;0.40;;;0.40;;
18340;SDS011;9296;48.084;16.352;2023-04-15T14:25:09;0.30;;;0.30;;
18340;SDS011;9296;48.084;16.352;2023-04-15T14:27:36;0.20;;;0.20;;
18340;SDS011;9296;48.084;16.352;2023-04-15T14:30:04;0.13;;;0.13;;
18340;SDS011;9296;48.084;16.352;2023-04-15T14:32:32;0.30;;;0.30;;
18340;SDS011;9296;48.084;16.352;2023-04-15T14:34:59;0.20;;;0.20;;
18340;SDS011;9296;48.084;16.352;2023-04-15T14:37:26;0.30;;;0.30;;
18340;SDS011;9296;48.084;16.352;2023-04-15T14:45:48;0.73;;;0.30;;
18340;SDS011;9296;48.084;16.352;2023-04-15T14:48:15;0.32;;;0.20;;
18340;SDS011;9296;48.084;16.352;2023-04-15T14:50:43;0.55;;;0.40;;
18340;SDS011;9296;48.084;16.352;2023-04-15T14:53:10;0.50;;;0.40;;
18340;SDS011;9296;48.084;16.352;2023-04-15T14:58:41;0.63;;;0.50;;
18340;SDS011;9296;48.084;16.352;2023-04-15T15:01:10;0.90;;;0.70;;
18340;SDS011;9296;48.084;16.352;2023-04-15T15:03:37;0.35;;;0.35;;
18340;SDS011;9296;48.084;16.352;2023-04-15T15:06:04;0.50;;;0.50;;
18340;SDS011;9296;48.084;16.352;2023-04-15T15:08:32;0.98;;;0.35;;
18340;SDS011;9296;48.084;16.352;2023-04-15T15:13:46;0.20;;;0.20;;
18340;SDS011;9296;48.084;16.352;2023-04-15T15:16:15;0.30;;;0.30;;
18340;SDS011;9296;48.084;16.352;2023-04-15T15:18:42;0.45;;;0.40;;
18340;SDS011;9296;48.084;16.352;2023-04-15T15:21:09;0.57;;;0.28;;
18340;SDS011;9296;48.084;16.352;2023-04-15T15:23:36;0.30;;;0.30;;
18340;SDS011;9296;48.084;16.352;2023-04-15T15:29:07;0.22;;;0.20;;
18340;SDS011;9296;48.084;16.352;2023-04-15T15:31:36;0.30;;;0.30;;
18340;SDS011;9296;48.084;16.352;2023-04-15T15:34:03;0.98;;;0.30;;
18340;SDS011;9296;48.084;16.352;2023-04-15T15:36:30;0.47;;;0.30;;
18340;SDS011;9296;48.084;16.352;2023-04-15T15:38:57;1.83;;;1.10;;
18340;SDS011;9296;48.084;16.352;2023-04-15T15:44:28;0.60;;;0.50;;
18340;SDS011;9296;48.084;16.352;2023-04-15T15:46:57;0.40;;;0.40;;
18340;SDS011;9296;48.084;16.352;2023-04-15T15:49:24;0.50;;;0.50;;
18340;SDS011;9296;48.084;16.352;2023-04-15T15:51:52;0.70;;;0.40;;
18340;SDS011;9296;48.084;16.352;2023-04-15T15:54:19;0.40;;;0.35;;
18340;SDS011;9296;48.084;16.352;2023-04-15T15:59:49;0.38;;;0.32;;
18340;SDS011;9296;48.084;16.352;2023-04-15T16:02:18;0.60;;;0.40;;
18340;SDS011;9296;48.084;16.352;2023-04-15T16:04:46;0.43;;;0.43;;
18340;SDS011;9296;48.084;16.352;2023-04-15T16:07:14;0.50;;;0.40;;
18340;SDS011;9296;48.084;16.352;2023-04-15T16:15:48;0.60;;;0.50;;
18340;SDS011;9296;48.084;16.352;2023-04-15T16:18:17;0.50;;;0.40;;
18340;SDS011;9296;48.084;16.352;2023-04-15T16:20:44;0.52;;;0.50;;
18340;SDS011;9296;48.084;16.352;2023-04-15T16:23:12;0.50;;;0.40;;
18340;SDS011;9296;48.084;16.352;2023-04-15T16:25:58;0.30;;;0.30;;
18340;SDS011;9296;48.084;16.352;2023-04-15T16:28:25;4.38;;;0.73;;
18340;SDS011;9296;48.084;16.352;2023-04-15T16:30:52;0.65;;;0.50;;
18340;SDS011;9296;48.084;16.352;2023-04-15T16:33:21;0.68;;;0.40;;
18340;SDS011;9296;48.084;16.352;2023-04-15T16:35:49;0.50;;;0.32;;
18340;SDS011;9296;48.084;16.352;2023-04-15T16:38:16;1.25;;;0.20;;
18340;SDS011;9296;48.084;16.352;2023-04-15T16:41:02;0.40;;;0.35;;
18340;SDS011;9296;48.084;16.352;2023-04-15T16:43:29;0.30;;;0.30;;
18340;SDS011;9296;48.084;16.352;2023-04-15T16:45:56;0.30;;;0.30;;
18340;SDS011;9296;48.084;16.352;2023-04-15T16:48:25;1.15;;;0.38;;
18340;SDS011;9296;48.084;16.352;2023-04-15T16:50:52;0.70;;;0.40;;
18340;SDS011;9296;48.084;16.352;2023-04-15T16:53:20;0.30;;;0.30;;
18340;SDS011;9296;48.084;16.352;2023-04-15T16:55:47;0.80;;;0.60;;